sensor_id;sensor_type;location;lat;lon;timestamp;P1;durP1;ratioP1;P2;durP2;ratioP2
61696;SDS011;47610;52.252;20.922;2023-08-21T00:02:23;9.60;;;8.50;;
61696;SDS011;47610;52.252;20.922;2023-08-21T00:07:26;9.50;;;8.20;;
61696;SDS011;47610;52.252;20.922;2023-08-21T00:12:29;12.90;;;8.70;;
61696;SDS011;47610;52.252;20.922;2023-08-21T00:17:32;12.30;;;8.70;;
61696;SDS011;47610;52.252;20.922;2023-08-21T00:22:35;12.20;;;9.50;;
61696;SDS011;47610;52.252;20.922;2023-08-21T00:27:40;10.70;;;9.60;;
61696;SDS011;47610;52.252;20.922;2023-08-21T00:32:43;10.40;;;9.40;;
61696;SDS011;47610;52.252;20.922;2023-08-21T00:37:47;13.30;;;10.10;;
61696;SDS011;47610;52.252;20.922;2023-08-21T00:42:50;12.40;;;10.80;;
61696;SDS011;47610;52.252;20.922;2023-08-21T00:47:53;12.90;;;10.70;;
61696;SDS011;47610;52.252;20.922;2023-08-21T00:52:56;12.90;;;10.80;;
61696;SDS011;47610;52.252;20.922;2023-08-21T00:58:00;11.70;;;10.40;;
61696;SDS011;47610;52.252;20.922;2023-08-21T01:03:06;15.00;;;11.00;;
61696;SDS011;47610;52.252;20.922;2023-08-21T01:08:13;13.40;;;10.30;;
61696;SDS011;47610;52.252;20.922;2023-08-21T01:13:30;12.10;;;10.80;;
61696;SDS011;47610;52.252;20.922;2023-08-21T01:18:49;12.20;;;10.80;;
61696;SDS011;47610;52.252;20.922;2023-08-21T01:23:54;13.80;;;10.30;;
61696;SDS011;47610;52.252;20.922;2023-08-21T01:28:57;14.00;;;11.40;;
61696;SDS011;47610;52.252;20.922;2023-08-21T01:34:01;15.30;;;11.60;;
61696;SDS011;47610;52.252;20.922;2023-08-21T01:39:10;12.90;;;11.50;;
61696;SDS011;47610;52.252;20.922;2023-08-21T01:44:14;14.00;;;12.60;;
61696;SDS011;47610;52.252;20.922;2023-08-21T01:49:17;14.00;;;12.10;;
61696;SDS011;47610;52.252;20.922;2023-08-21T01:54:20;14.20;;;11.20;;
61696;SDS011;47610;52.252;20.922;2023-08-21T01:59:23;12.20;;;10.90;;
61696;SDS011;47610;52.252;20.922;2023-08-21T02:04:27;14.60;;;11.40;;
61696;SDS011;47610;52.252;20.922;2023-08-21T02:09:30;13.20;;;11.70;;
61696;SDS011;47610;52.252;20.922;2023-08-21T02:14:33;13.20;;;11.20;;
61696;SDS011;47610;52.252;20.922;2023-08-21T02:19:36;15.60;;;11.50;;
61696;SDS011;47610;52.252;20.922;2023-08-21T02:24:40;14.90;;;11.60;;
61696;SDS011;47610;52.252;20.922;2023-08-21T02:29:43;12.50;;;11.20;;
61696;SDS011;47610;52.252;20.922;2023-08-21T02:34:46;14.40;;;12.00;;
61696;SDS011;47610;52.252;20.922;2023-08-21T02:44:51;14.50;;;12.60;;
61696;SDS011;47610;52.252;20.922;2023-08-21T02:49:54;13.90;;;12.40;;
61696;SDS011;47610;52.252;20.922;2023-08-21T02:54:58;12.90;;;11.50;;
61696;SDS011;47610;52.252;20.922;2023-08-21T03:00:03;12.90;;;11.60;;
61696;SDS011;47610;52.252;20.922;2023-08-21T03:05:12;12.60;;;11.30;;
61696;SDS011;47610;52.252;20.922;2023-08-21T03:10:16;13.90;;;12.50;;
61696;SDS011;47610;52.252;20.922;2023-08-21T03:15:21;13.70;;;12.10;;
61696;SDS011;47610;52.252;20.922;2023-08-21T03:20:24;15.90;;;13.70;;
61696;SDS011;47610;52.252;20.922;2023-08-21T03:25:29;15.30;;;13.20;;
61696;SDS011;47610;52.252;20.922;2023-08-21T03:30:32;14.20;;;12.10;;
61696;SDS011;47610;52.252;20.922;2023-08-21T03:35:35;15.60;;;13.40;;
61696;SDS011;47610;52.252;20.922;2023-08-21T03:40:39;15.80;;;13.60;;
61696;SDS011;47610;52.252;20.922;2023-08-21T03:45:42;15.90;;;13.60;;
61696;SDS011;47610;52.252;20.922;2023-08-21T03:50:45;16.70;;;13.60;;
61696;SDS011;47610;52.252;20.922;2023-08-21T03:55:48;16.20;;;13.90;;
61696;SDS011;47610;52.252;20.922;2023-08-21T04:00:52;17.40;;;14.70;;
61696;SDS011;47610;52.252;20.922;2023-08-21T04:10:57;17.00;;;14.10;;
61696;SDS011;47610;52.252;20.922;2023-08-21T04:16:03;16.50;;;12.60;;
61696;SDS011;47610;52.252;20.922;2023-08-21T04:21:06;17.90;;;12.80;;
61696;SDS011;47610;52.252;20.922;2023-08-21T04:26:09;14.00;;;12.50;;
61696;SDS011;47610;52.252;20.922;2023-08-21T04:31:13;17.40;;;13.30;;
61696;SDS011;47610;52.252;20.922;2023-08-21T04:36:16;15.40;;;11.40;;
61696;SDS011;47610;52.252;20.922;2023-08-21T04:41:19;16.20;;;12.60;;
61696;SDS011;47610;52.252;20.922;2023-08-21T04:46:22;13.20;;;11.20;;
61696;SDS011;47610;52.252;20.922;2023-08-21T04:51:25;14.40;;;11.90;;
61696;SDS011;47610;52.252;20.922;2023-08-21T04:56:29;15.00;;;11.40;;
61696;SDS011;47610;52.252;20.922;2023-08-21T05:01:32;14.80;;;11.70;;
61696;SDS011;47610;52.252;20.922;2023-08-21T05:06:35;14.80;;;12.00;;
61696;SDS011;47610;52.252;20.922;2023-08-21T05:11:38;16.50;;;12.70;;
61696;SDS011;47610;52.252;20.922;2023-08-21T05:16:41;14.50;;;11.50;;
61696;SDS011;47610;52.252;20.922;2023-08-21T05:21:45;19.20;;;12.80;;
61696;SDS011;47610;52.252;20.922;2023-08-21T05:26:49;13.90;;;12.20;;
61696;SDS011;47610;52.252;20.922;2023-08-21T05:31:52;14.20;;;12.00;;
61696;SDS011;47610;52.252;20.922;2023-08-21T05:36:55;14.00;;;12.20;;
61696;SDS011;47610;52.252;20.922;2023-08-21T05:41:58;15.20;;;12.50;;
61696;SDS011;47610;52.252;20.922;2023-08-21T05:47:01;16.00;;;12.80;;
61696;SDS011;47610;52.252;20.922;2023-08-21T05:52:06;15.30;;;12.70;;
61696;SDS011;47610;52.252;20.922;2023-08-21T05:57:11;15.40;;;13.60;;
61696;SDS011;47610;52.252;20.922;2023-08-21T06:02:14;14.00;;;12.60;;
61696;SDS011;47610;52.252;20.922;2023-08-21T06:07:17;14.20;;;12.10;;
61696;SDS011;47610;52.252;20.922;2023-08-21T06:12:21;16.70;;;12.40;;
61696;SDS011;47610;52.252;20.922;2023-08-21T06:17:26;15.40;;;13.10;;
61696;SDS011;47610;52.252;20.922;2023-08-21T06:22:30;14.80;;;12.60;;
61696;SDS011;47610;52.252;20.922;2023-08-21T06:27:34;14.30;;;11.30;;
61696;SDS011;47610;52.252;20.922;2023-08-21T06:32:37;16.00;;;11.50;;
61696;SDS011;47610;52.252;20.922;2023-08-21T06:37:40;13.60;;;12.10;;
61696;SDS011;47610;52.252;20.922;2023-08-21T06:42:45;15.30;;;11.70;;
61696;SDS011;47610;52.252;20.922;2023-08-21T06:47:48;14.20;;;11.70;;
61696;SDS011;47610;52.252;20.922;2023-08-21T06:52:51;14.20;;;11.60;;
61696;SDS011;47610;52.252;20.922;2023-08-21T06:57:55;15.50;;;12.20;;
61696;SDS011;47610;52.252;20.922;2023-08-21T07:02:58;14.50;;;11.60;;
61696;SDS011;47610;52.252;20.922;2023-08-21T07:08:02;12.90;;;11.20;;
61696;SDS011;47610;52.252;20.922;2023-08-21T07:13:06;16.20;;;10.90;;
61696;SDS011;47610;52.252;20.922;2023-08-21T07:18:10;12.90;;;10.70;;
61696;SDS011;47610;52.252;20.922;2023-08-21T07:23:13;15.10;;;11.30;;
61696;SDS011;47610;52.252;20.922;2023-08-21T07:28:16;14.60;;;13.10;;
61696;SDS011;47610;52.252;20.922;2023-08-21T07:33:20;13.90;;;11.50;;
61696;SDS011;47610;52.252;20.922;2023-08-21T07:38:23;14.70;;;12.80;;
61696;SDS011;47610;52.252;20.922;2023-08-21T07:43:26;15.20;;;12.50;;
61696;SDS011;47610;52.252;20.922;2023-08-21T07:48:30;12.30;;;11.00;;
61696;SDS011;47610;52.252;20.922;2023-08-21T07:53:33;16.20;;;12.00;;
61696;SDS011;47610;52.252;20.922;2023-08-21T07:58:36;13.90;;;11.40;;
61696;SDS011;47610;52.252;20.922;2023-08-21T08:03:40;13.40;;;11.20;;
61696;SDS011;47610;52.252;20.922;2023-08-21T08:08:43;12.70;;;11.20;;
61696;SDS011;47610;52.252;20.922;2023-08-21T08:13:47;16.20;;;11.00;;
61696;SDS011;47610;52.252;20.922;2023-08-21T08:18:50;13.70;;;10.90;;
61696;SDS011;47610;52.252;20.922;2023-08-21T08:28:56;9.80;;;8.60;;
61696;SDS011;47610;52.252;20.922;2023-08-21T08:34:00;11.50;;;9.10;;
61696;SDS011;47610;52.252;20.922;2023-08-21T08:39:04;11.20;;;9.20;;
61696;SDS011;47610;52.252;20.922;2023-08-21T08:44:07;10.40;;;7.70;;
61696;SDS011;47610;52.252;20.922;2023-08-21T08:49:15;10.00;;;7.70;;
61696;SDS011;47610;52.252;20.922;2023-08-21T08:54:19;8.50;;;7.60;;
61696;SDS011;47610;52.252;20.922;2023-08-21T08:59:24;7.40;;;6.70;;
61696;SDS011;47610;52.252;20.922;2023-08-21T09:04:31;8.20;;;6.70;;
61696;SDS011;47610;52.252;20.922;2023-08-21T09:09:39;10.40;;;6.50;;
61696;SDS011;47610;52.252;20.922;2023-08-21T09:14:46;9.50;;;6.00;;
61696;SDS011;47610;52.252;20.922;2023-08-21T09:19:50;6.60;;;5.60;;
61696;SDS011;47610;52.252;20.922;2023-08-21T09:25:01;6.00;;;4.00;;
61696;SDS011;47610;52.252;20.922;2023-08-21T09:30:10;6.50;;;4.00;;
61696;SDS011;47610;52.252;20.922;2023-08-21T09:35:15;7.80;;;4.40;;
61696;SDS011;47610;52.252;20.922;2023-08-21T09:40:19;5.90;;;4.50;;
61696;SDS011;47610;52.252;20.922;2023-08-21T09:45:23;5.70;;;4.10;;
61696;SDS011;47610;52.252;20.922;2023-08-21T09:50:30;4.50;;;4.00;;
61696;SDS011;47610;52.252;20.922;2023-08-21T09:55:34;4.40;;;3.10;;
61696;SDS011;47610;52.252;20.922;2023-08-21T10:00:41;7.70;;;3.40;;
61696;SDS011;47610;52.252;20.922;2023-08-21T10:05:46;4.20;;;3.60;;
61696;SDS011;47610;52.252;20.922;2023-08-21T10:10:50;4.90;;;3.20;;
61696;SDS011;47610;52.252;20.922;2023-08-21T10:15:53;3.30;;;2.80;;
61696;SDS011;47610;52.252;20.922;2023-08-21T10:20:57;3.50;;;2.70;;
61696;SDS011;47610;52.252;20.922;2023-08-21T10:26:19;4.00;;;2.60;;
61696;SDS011;47610;52.252;20.922;2023-08-21T10:31:29;3.50;;;2.70;;
61696;SDS011;47610;52.252;20.922;2023-08-21T10:37:01;5.40;;;2.90;;
61696;SDS011;47610;52.252;20.922;2023-08-21T10:42:11;3.90;;;3.20;;
61696;SDS011;47610;52.252;20.922;2023-08-21T10:47:17;4.70;;;3.70;;
61696;SDS011;47610;52.252;20.922;2023-08-21T10:52:25;4.60;;;3.50;;
61696;SDS011;47610;52.252;20.922;2023-08-21T10:57:31;4.20;;;3.20;;
61696;SDS011;47610;52.252;20.922;2023-08-21T11:02:36;5.90;;;3.30;;
61696;SDS011;47610;52.252;20.922;2023-08-21T11:07:41;5.30;;;3.40;;
61696;SDS011;47610;52.252;20.922;2023-08-21T11:12:51;3.80;;;2.90;;
61696;SDS011;47610;52.252;20.922;2023-08-21T11:17:56;4.80;;;3.30;;
61696;SDS011;47610;52.252;20.922;2023-08-21T11:23:03;5.50;;;3.50;;
61696;SDS011;47610;52.252;20.922;2023-08-21T11:28:09;5.10;;;3.20;;
61696;SDS011;47610;52.252;20.922;2023-08-21T11:33:13;4.60;;;3.00;;
61696;SDS011;47610;52.252;20.922;2023-08-21T11:38:22;5.80;;;3.10;;
61696;SDS011;47610;52.252;20.922;2023-08-21T11:43:37;3.50;;;2.30;;
61696;SDS011;47610;52.252;20.922;2023-08-21T11:48:42;4.90;;;2.80;;
61696;SDS011;47610;52.252;20.922;2023-08-21T11:53:47;4.70;;;2.40;;
61696;SDS011;47610;52.252;20.922;2023-08-21T11:58:50;5.10;;;2.60;;
61696;SDS011;47610;52.252;20.922;2023-08-21T12:03:55;4.60;;;2.70;;
61696;SDS011;47610;52.252;20.922;2023-08-21T12:08:59;4.70;;;2.50;;
61696;SDS011;47610;52.252;20.922;2023-08-21T12:14:03;7.70;;;2.40;;
61696;SDS011;47610;52.252;20.922;2023-08-21T12:19:07;4.30;;;2.10;;
61696;SDS011;47610;52.252;20.922;2023-08-21T12:24:10;3.50;;;2.40;;
61696;SDS011;47610;52.252;20.922;2023-08-21T12:29:14;4.40;;;2.10;;
61696;SDS011;47610;52.252;20.922;2023-08-21T12:34:18;2.70;;;2.00;;
61696;SDS011;47610;52.252;20.922;2023-08-21T12:39:21;4.70;;;1.80;;
61696;SDS011;47610;52.252;20.922;2023-08-21T12:44:24;6.90;;;2.00;;
61696;SDS011;47610;52.252;20.922;2023-08-21T12:49:27;2.90;;;1.80;;
61696;SDS011;47610;52.252;20.922;2023-08-21T12:59:32;3.10;;;1.90;;
61696;SDS011;47610;52.252;20.922;2023-08-21T13:04:36;4.90;;;1.60;;
61696;SDS011;47610;52.252;20.922;2023-08-21T13:14:41;8.60;;;1.80;;
61696;SDS011;47610;52.252;20.922;2023-08-21T13:19:44;2.50;;;1.40;;
61696;SDS011;47610;52.252;20.922;2023-08-21T13:24:48;4.50;;;1.80;;
61696;SDS011;47610;52.252;20.922;2023-08-21T13:29:51;5.30;;;1.50;;
61696;SDS011;47610;52.252;20.922;2023-08-21T13:34:54;2.30;;;1.30;;
61696;SDS011;47610;52.252;20.922;2023-08-21T13:39:57;3.40;;;1.30;;
61696;SDS011;47610;52.252;20.922;2023-08-21T13:45:00;5.30;;;1.30;;
61696;SDS011;47610;52.252;20.922;2023-08-21T13:50:04;2.50;;;1.40;;
61696;SDS011;47610;52.252;20.922;2023-08-21T13:55:12;4.10;;;1.70;;
61696;SDS011;47610;52.252;20.922;2023-08-21T14:00:17;4.70;;;1.40;;
61696;SDS011;47610;52.252;20.922;2023-08-21T14:05:21;3.80;;;1.50;;
61696;SDS011;47610;52.252;20.922;2023-08-21T14:10:24;5.00;;;1.40;;
61696;SDS011;47610;52.252;20.922;2023-08-21T14:15:28;2.90;;;1.40;;
61696;SDS011;47610;52.252;20.922;2023-08-21T14:20:31;4.10;;;1.30;;
61696;SDS011;47610;52.252;20.922;2023-08-21T14:25:35;3.60;;;1.40;;
61696;SDS011;47610;52.252;20.922;2023-08-21T14:30:38;2.10;;;1.10;;
61696;SDS011;47610;52.252;20.922;2023-08-21T14:35:41;5.50;;;1.40;;
61696;SDS011;47610;52.252;20.922;2023-08-21T14:40:44;2.60;;;1.40;;
61696;SDS011;47610;52.252;20.922;2023-08-21T14:45:49;7.10;;;1.80;;
61696;SDS011;47610;52.252;20.922;2023-08-21T14:50:52;4.40;;;1.40;;
61696;SDS011;47610;52.252;20.922;2023-08-21T14:55:55;5.50;;;1.30;;
61696;SDS011;47610;52.252;20.922;2023-08-21T15:00:58;3.30;;;1.40;;
61696;SDS011;47610;52.252;20.922;2023-08-21T15:06:01;4.90;;;1.30;;
61696;SDS011;47610;52.252;20.922;2023-08-21T15:11:05;5.30;;;1.50;;
61696;SDS011;47610;52.252;20.922;2023-08-21T15:16:10;3.90;;;1.40;;
61696;SDS011;47610;52.252;20.922;2023-08-21T15:21:14;8.70;;;1.80;;
61696;SDS011;47610;52.252;20.922;2023-08-21T15:26:17;3.00;;;1.40;;
61696;SDS011;47610;52.252;20.922;2023-08-21T15:31:21;4.40;;;1.60;;
61696;SDS011;47610;52.252;20.922;2023-08-21T15:36:26;6.20;;;1.80;;
61696;SDS011;47610;52.252;20.922;2023-08-21T15:41:29;3.80;;;1.60;;
61696;SDS011;47610;52.252;20.922;2023-08-21T15:46:32;3.10;;;1.20;;
61696;SDS011;47610;52.252;20.922;2023-08-21T15:56:37;5.80;;;1.50;;
61696;SDS011;47610;52.252;20.922;2023-08-21T16:01:41;4.60;;;1.70;;
61696;SDS011;47610;52.252;20.922;2023-08-21T16:06:44;4.60;;;1.40;;
61696;SDS011;47610;52.252;20.922;2023-08-21T16:11:48;5.20;;;1.70;;
61696;SDS011;47610;52.252;20.922;2023-08-21T16:16:51;7.30;;;1.40;;
61696;SDS011;47610;52.252;20.922;2023-08-21T16:26:56;3.90;;;1.50;;
61696;SDS011;47610;52.252;20.922;2023-08-21T16:31:59;4.30;;;1.60;;
61696;SDS011;47610;52.252;20.922;2023-08-21T16:37:04;7.60;;;1.80;;
61696;SDS011;47610;52.252;20.922;2023-08-21T16:42:08;4.40;;;1.80;;
61696;SDS011;47610;52.252;20.922;2023-08-21T16:47:14;2.90;;;1.50;;
61696;SDS011;47610;52.252;20.922;2023-08-21T16:52:17;6.50;;;1.40;;
61696;SDS011;47610;52.252;20.922;2023-08-21T16:57:21;3.80;;;1.60;;
61696;SDS011;47610;52.252;20.922;2023-08-21T17:02:24;5.60;;;1.60;;
61696;SDS011;47610;52.252;20.922;2023-08-21T17:07:28;5.70;;;1.40;;
61696;SDS011;47610;52.252;20.922;2023-08-21T17:12:31;3.10;;;1.40;;
61696;SDS011;47610;52.252;20.922;2023-08-21T17:17:34;6.00;;;1.50;;
61696;SDS011;47610;52.252;20.922;2023-08-21T17:22:38;23.70;;;12.50;;
61696;SDS011;47610;52.252;20.922;2023-08-21T17:27:41;10.30;;;1.90;;
61696;SDS011;47610;52.252;20.922;2023-08-21T17:32:44;9.00;;;2.60;;
61696;SDS011;47610;52.252;20.922;2023-08-21T17:42:49;2.70;;;1.60;;
61696;SDS011;47610;52.252;20.922;2023-08-21T17:47:52;4.30;;;1.50;;
61696;SDS011;47610;52.252;20.922;2023-08-21T17:52:56;5.10;;;1.60;;
61696;SDS011;47610;52.252;20.922;2023-08-21T17:58:00;3.50;;;1.50;;
61696;SDS011;47610;52.252;20.922;2023-08-21T18:03:04;7.20;;;1.80;;
61696;SDS011;47610;52.252;20.922;2023-08-21T18:08:07;3.80;;;1.50;;
61696;SDS011;47610;52.252;20.922;2023-08-21T18:13:10;3.70;;;1.80;;
61696;SDS011;47610;52.252;20.922;2023-08-21T18:18:15;4.50;;;1.70;;
61696;SDS011;47610;52.252;20.922;2023-08-21T18:23:20;5.60;;;1.50;;
61696;SDS011;47610;52.252;20.922;2023-08-21T18:28:25;6.50;;;2.00;;
61696;SDS011;47610;52.252;20.922;2023-08-21T18:33:29;4.70;;;2.00;;
61696;SDS011;47610;52.252;20.922;2023-08-21T18:38:33;4.90;;;1.90;;
61696;SDS011;47610;52.252;20.922;2023-08-21T18:43:36;8.60;;;2.00;;
61696;SDS011;47610;52.252;20.922;2023-08-21T18:48:40;4.50;;;1.60;;
61696;SDS011;47610;52.252;20.922;2023-08-21T18:53:43;4.50;;;2.00;;
61696;SDS011;47610;52.252;20.922;2023-08-21T18:58:47;8.00;;;1.90;;
61696;SDS011;47610;52.252;20.922;2023-08-21T19:03:50;4.70;;;2.10;;
61696;SDS011;47610;52.252;20.922;2023-08-21T19:08:54;3.40;;;1.80;;
61696;SDS011;47610;52.252;20.922;2023-08-21T19:13:57;3.90;;;1.90;;
61696;SDS011;47610;52.252;20.922;2023-08-21T19:19:00;6.90;;;2.00;;
61696;SDS011;47610;52.252;20.922;2023-08-21T19:34:09;5.90;;;2.20;;
61696;SDS011;47610;52.252;20.922;2023-08-21T19:39:12;3.10;;;2.00;;
61696;SDS011;47610;52.252;20.922;2023-08-21T19:44:15;3.20;;;1.70;;
61696;SDS011;47610;52.252;20.922;2023-08-21T19:49:18;4.50;;;2.00;;
61696;SDS011;47610;52.252;20.922;2023-08-21T19:54:22;3.70;;;1.70;;
61696;SDS011;47610;52.252;20.922;2023-08-21T19:59:25;4.40;;;1.80;;
61696;SDS011;47610;52.252;20.922;2023-08-21T20:04:29;3.00;;;1.70;;
61696;SDS011;47610;52.252;20.922;2023-08-21T20:09:32;4.70;;;1.90;;
61696;SDS011;47610;52.252;20.922;2023-08-21T20:14:35;4.80;;;2.00;;
61696;SDS011;47610;52.252;20.922;2023-08-21T20:19:38;6.00;;;2.20;;
61696;SDS011;47610;52.252;20.922;2023-08-21T20:24:41;5.30;;;1.80;;
61696;SDS011;47610;52.252;20.922;2023-08-21T20:29:45;6.60;;;2.10;;
61696;SDS011;47610;52.252;20.922;2023-08-21T20:34:49;7.50;;;2.20;;
61696;SDS011;47610;52.252;20.922;2023-08-21T20:39:52;5.30;;;2.20;;
61696;SDS011;47610;52.252;20.922;2023-08-21T20:44:56;7.50;;;2.40;;
61696;SDS011;47610;52.252;20.922;2023-08-21T20:49:59;4.00;;;2.20;;
61696;SDS011;47610;52.252;20.922;2023-08-21T20:55:05;5.60;;;2.10;;
61696;SDS011;47610;52.252;20.922;2023-08-21T21:00:13;7.20;;;2.10;;
61696;SDS011;47610;52.252;20.922;2023-08-21T21:05:17;5.40;;;2.60;;
61696;SDS011;47610;52.252;20.922;2023-08-21T21:10:25;7.20;;;3.10;;
61696;SDS011;47610;52.252;20.922;2023-08-21T21:15:29;8.00;;;3.10;;
61696;SDS011;47610;52.252;20.922;2023-08-21T21:20:33;6.00;;;2.70;;
61696;SDS011;47610;52.252;20.922;2023-08-21T21:25:37;9.40;;;2.80;;
61696;SDS011;47610;52.252;20.922;2023-08-21T21:30:41;7.60;;;3.10;;
61696;SDS011;47610;52.252;20.922;2023-08-21T21:35:44;8.70;;;3.00;;
61696;SDS011;47610;52.252;20.922;2023-08-21T21:40:47;7.50;;;2.90;;
61696;SDS011;47610;52.252;20.922;2023-08-21T21:45:55;8.40;;;3.10;;
61696;SDS011;47610;52.252;20.922;2023-08-21T21:50:59;6.40;;;3.20;;
61696;SDS011;47610;52.252;20.922;2023-08-21T21:56:04;8.70;;;2.90;;
61696;SDS011;47610;52.252;20.922;2023-08-21T22:01:07;6.70;;;3.00;;
61696;SDS011;47610;52.252;20.922;2023-08-21T22:06:11;11.30;;;3.60;;
61696;SDS011;47610;52.252;20.922;2023-08-21T22:11:14;9.20;;;3.10;;
61696;SDS011;47610;52.252;20.922;2023-08-21T22:16:18;8.00;;;3.40;;
61696;SDS011;47610;52.252;20.922;2023-08-21T22:21:22;9.00;;;3.80;;
61696;SDS011;47610;52.252;20.922;2023-08-21T22:26:25;9.00;;;4.20;;
61696;SDS011;47610;52.252;20.922;2023-08-21T22:31:28;7.10;;;3.80;;
61696;SDS011;47610;52.252;20.922;2023-08-21T22:36:32;5.00;;;3.40;;
61696;SDS011;47610;52.252;20.922;2023-08-21T22:41:35;7.70;;;3.60;;
61696;SDS011;47610;52.252;20.922;2023-08-21T22:46:38;9.40;;;3.90;;
61696;SDS011;47610;52.252;20.922;2023-08-21T22:51:42;5.30;;;3.50;;
61696;SDS011;47610;52.252;20.922;2023-08-21T22:56:45;8.70;;;4.90;;
61696;SDS011;47610;52.252;20.922;2023-08-21T23:01:49;7.90;;;3.90;;
61696;SDS011;47610;52.252;20.922;2023-08-21T23:06:52;9.70;;;4.10;;
61696;SDS011;47610;52.252;20.922;2023-08-21T23:11:55;8.00;;;4.10;;
61696;SDS011;47610;52.252;20.922;2023-08-21T23:16:58;8.30;;;4.40;;
61696;SDS011;47610;52.252;20.922;2023-08-21T23:22:03;9.70;;;4.20;;
61696;SDS011;47610;52.252;20.922;2023-08-21T23:27:06;9.60;;;3.50;;
61696;SDS011;47610;52.252;20.922;2023-08-21T23:32:09;8.90;;;4.50;;
61696;SDS011;47610;52.252;20.922;2023-08-21T23:37:12;8.10;;;3.80;;
61696;SDS011;47610;52.252;20.922;2023-08-21T23:42:16;8.00;;;3.50;;
61696;SDS011;47610;52.252;20.922;2023-08-21T23:47:19;6.00;;;3.30;;
61696;SDS011;47610;52.252;20.922;2023-08-21T23:52:22;8.60;;;3.30;;
61696;SDS011;47610;52.252;20.922;2023-08-21T23:57:26;6.70;;;3.40;;
